Time;durP1;ratioP1;P1;durP2;ratioP2;P2;SDS_P1;SDS_P2;PMS_P1;PMS_P2;Temp;Humidity;BMP_temperature;BMP_pressure;BME280_temperature;BME280_humidity;BME280_pressure;Samples;Min_cycle;Max_cycle;Signal;HPM_P1;HPM_P2
2024/01/21 00:00:37;;;;;;;36.42;25.27;;;;;;;0.34;56.63;101415.03;4302069;33;20159;-72
2024/01/21 00:03:09;;;;;;;34.70;23.83;;;;;;;0.22;57.04;101418.53;4301814;33;20436;-75
2024/01/21 00:05:38;;;;;;;34.30;23.80;;;;;;;0.12;57.37;101413.34;4301974;33;20175;-75
2024/01/21 00:08:08;;;;;;;34.25;25.77;;;;;;;0.20;57.07;101416.84;4288960;33;20167;-74
2024/01/21 00:10:38;;;;;;;38.63;22.67;;;;;;;0.14;56.95;101422.06;4306546;33;20155;-72
2024/01/21 00:13:10;;;;;;;36.40;25.90;;;;;;;0.36;56.28;101422.88;4319573;28;20178;-72
2024/01/21 00:15:46;;;;;;;33.83;24.42;;;;;;;0.44;55.93;101434.16;4300832;33;20191;-72
2024/01/21 00:18:15;;;;;;;35.30;24.77;;;;;;;0.36;56.05;101428.94;4303447;33;20152;-72
2024/01/21 00:20:45;;;;;;;31.58;22.48;;;;;;;0.26;56.38;101421.16;4300810;33;20167;-73
2024/01/21 00:23:16;;;;;;;32.38;20.62;;;;;;;0.11;56.70;101420.31;4301976;33;20139;-73
2024/01/21 00:25:45;;;;;;;28.90;21.00;;;;;;;0.25;56.21;101412.47;4303902;33;20139;-73
2024/01/21 00:28:14;;;;;;;36.22;22.48;;;;;;;0.34;55.67;101411.56;4304982;33;20228;-73
2024/01/21 00:30:46;;;;;;;30.70;20.85;;;;;;;0.37;55.36;101422.84;4304937;33;20155;-73
2024/01/21 00:33:16;;;;;;;;;;;;;;;0.31;55.55;101414.19;4305225;33;20139;-73
2024/01/21 00:35:45;;;;;;;31.45;21.35;;;;;;;-0.11;56.57;101421.22;4305048;33;20027;-72
2024/01/21 00:38:15;;;;;;;28.92;20.85;;;;;;;0.09;56.24;101432.50;4305428;33;20164;-72
2024/01/21 00:40:45;;;;;;;29.67;22.55;;;;;;;0.34;55.52;101430.69;4304546;33;20151;-72
2024/01/21 00:43:14;;;;;;;31.60;20.75;;;;;;;0.28;55.59;101437.63;4309066;28;20171;-73
2024/01/21 00:45:53;;;;;;;26.67;20.70;;;;;;;0.38;55.43;101439.38;4304245;33;20167;-72
2024/01/21 00:48:26;;;;;;;30.65;19.80;;;;;;;0.32;55.40;101435.06;4303872;33;20489;-72
2024/01/21 00:50:55;;;;;;;30.67;20.98;;;;;;;0.56;54.70;101446.28;4303403;33;20143;-73
2024/01/21 00:53:26;;;;;;;28.98;20.62;;;;;;;0.33;55.12;101451.56;4299997;33;20140;-72
2024/01/21 00:55:55;;;;;;;25.60;20.08;;;;;;;0.30;55.27;101449.81;4289543;33;20167;-72
2024/01/21 00:58:25;;;;;;;27.13;19.92;;;;;;;0.41;55.08;101449.78;4289319;33;20447;-72
2024/01/21 01:00:56;;;;;;;32.07;19.77;;;;;;;0.63;54.67;101455.78;4289506;33;20163;-72
2024/01/21 01:03:26;;;;;;;25.88;17.65;;;;;;;0.77;54.10;101443.56;4289293;33;20922;-72
2024/01/21 01:05:56;;;;;;;27.98;19.12;;;;;;;0.59;54.03;101449.72;4289471;33;20421;-72
2024/01/21 01:08:27;;;;;;;26.87;18.70;;;;;;;0.63;54.06;101446.22;4289829;33;20877;-72
2024/01/21 01:10:56;;;;;;;24.37;17.92;;;;;;;0.57;54.18;101443.66;4296170;33;20173;-72
2024/01/21 01:13:26;;;;;;;31.87;21.20;;;;;;;0.54;54.16;101435.84;4308123;28;20621;-72
2024/01/21 01:15:59;;;;;;;25.30;19.37;;;;;;;0.44;54.30;101439.38;4304096;33;20151;-72
2024/01/21 01:18:31;;;;;;;25.73;19.55;;;;;;;0.42;54.45;101443.69;4303810;33;20147;-73
2024/01/21 01:21:01;;;;;;;26.75;19.98;;;;;;;0.54;54.09;101441.06;4303453;33;20157;-73
2024/01/21 01:23:33;;;;;;;21.85;17.92;;;;;;;0.37;54.53;101446.31;4303813;33;20159;-73
2024/01/21 01:26:02;;;;;;;27.10;19.17;;;;;;;0.26;54.72;101452.44;4304153;33;20175;-73
2024/01/21 01:28:34;;;;;;;25.15;18.65;;;;;;;0.35;54.48;101449.78;4303933;33;20485;-73
2024/01/21 01:31:03;;;;;;;27.33;18.05;;;;;;;0.56;53.64;101454.97;4304002;33;20397;-73
2024/01/21 01:33:32;;;;;;;23.95;17.17;;;;;;;0.58;53.68;101458.41;4304087;33;20183;-73
2024/01/21 01:36:02;;;;;;;22.45;16.70;;;;;;;0.45;53.99;101444.56;4302910;33;20290;-73
2024/01/21 01:38:35;;;;;;;26.95;17.90;;;;;;;0.55;53.65;101450.59;4304615;33;20427;-73
2024/01/21 01:41:07;;;;;;;30.48;18.92;;;;;;;0.44;53.77;101447.19;4304760;33;20143;-72
2024/01/21 01:43:36;;;;;;;28.45;17.12;;;;;;;0.45;53.93;101446.31;4295193;28;20147;-72
2024/01/21 01:46:13;;;;;;;23.55;16.98;;;;;;;0.39;54.06;101452.38;4304478;33;20148;-73
2024/01/21 01:48:42;;;;;;;26.80;18.15;;;;;;;0.47;53.80;101444.53;4304594;33;20139;-73
2024/01/21 01:51:12;;;;;;;23.85;17.33;;;;;;;0.48;53.85;101444.56;4301560;33;20167;-73
2024/01/21 01:53:46;;;;;;;24.30;16.95;;;;;;;0.40;53.97;101438.50;4298182;33;20147;-73
2024/01/21 01:56:16;;;;;;;28.80;17.85;;;;;;;0.47;53.72;101442.81;4304939;33;20135;-73
2024/01/21 01:58:49;;;;;;;24.23;17.27;;;;;;;0.37;54.00;101445.47;4304535;33;20155;-72
2024/01/21 02:01:19;;;;;;;25.23;16.30;;;;;;;0.31;54.10;101433.28;4304854;33;20171;-73
2024/01/21 02:03:49;;;;;;;23.20;16.37;;;;;;;0.19;54.36;101439.41;4304216;33;20143;-73
2024/01/21 02:06:18;;;;;;;22.48;16.87;;;;;;;-0.16;55.17;101446.41;4304375;33;20199;-73
2024/01/21 02:08:49;;;;;;;24.52;19.08;;;;;;;-0.05;55.13;101447.25;4291407;33;20139;-73
2024/01/21 02:11:18;;;;;;;23.20;17.75;;;;;;;-0.03;54.99;101446.41;4313449;33;20420;-73
2024/01/21 02:13:47;;;;;;;29.17;20.17;;;;;;;0.08;54.82;101443.78;4318778;28;20135;-73
2024/01/21 02:16:17;;;;;;;24.00;16.87;;;;;;;0.16;54.43;101449.84;4303927;33;20158;-73
2024/01/21 02:18:47;;;;;;;26.50;17.45;;;;;;;0.15;54.59;101450.69;4304401;33;20155;-73
2024/01/21 02:21:19;;;;;;;22.75;16.90;;;;;;;0.19;54.31;101452.44;4303071;33;20219;-73
2024/01/21 02:23:50;;;;;;;27.98;18.27;;;;;;;0.31;54.16;101455.88;4303260;33;20139;-73
2024/01/21 02:26:19;;;;;;;22.70;17.05;;;;;;;0.28;54.24;101456.78;4304572;33;20139;-73
2024/01/21 02:28:48;;;;;;;23.73;17.98;;;;;;;0.32;53.81;101462.84;4304429;33;20155;-73
2024/01/21 02:31:21;;;;;;;21.58;16.90;;;;;;;0.51;53.49;101458.44;4303963;33;20442;-73
2024/01/21 02:33:50;;;;;;;24.58;17.58;;;;;;;0.21;54.02;101450.72;4304127;33;20171;-72
2024/01/21 02:36:20;;;;;;;26.73;18.42;;;;;;;-0.01;54.62;101451.59;4304619;33;20174;-72
2024/01/21 02:38:50;;;;;;;23.60;18.17;;;;;;;0.16;54.41;101447.25;4304526;33;20164;-73
2024/01/21 02:41:20;;;;;;;27.98;18.60;;;;;;;-0.03;54.92;101454.22;4304892;33;20147;-73
2024/01/21 02:43:48;;;;;;;27.95;18.73;;;;;;;-0.33;55.94;101443.81;4308688;28;20167;-72
2024/01/21 02:46:18;;;;;;;23.65;17.33;;;;;;;-0.32;55.97;101445.53;4304370;33;20517;-73
2024/01/21 02:48:49;;;;;;;28.12;18.60;;;;;;;-0.38;56.12;101446.41;4288962;33;20513;-73
2024/01/21 02:51:18;;;;;;;27.77;18.30;;;;;;;-0.22;55.86;101451.63;4290833;33;20497;-73
2024/01/21 02:53:48;;;;;;;25.48;17.05;;;;;;;-0.29;56.03;101451.63;4303571;33;20171;-72
2024/01/21 02:56:24;;;;;;;23.50;17.77;;;;;;;-0.20;55.84;101452.47;4304358;33;20147;-72
2024/01/21 02:58:54;;;;;;;30.70;18.42;;;;;;;-0.40;56.41;101458.53;4304443;33;20175;-72
2024/01/21 03:01:23;;;;;;;26.37;18.90;;;;;;;-0.42;56.40;101459.44;4303472;33;20189;-72
2024/01/21 03:03:53;;;;;;;25.60;16.75;;;;;;;-0.51;56.63;101463.75;4303407;33;20159;-72
2024/01/21 03:06:22;;;;;;;27.23;18.30;;;;;;;-0.58;56.85;101468.97;4303535;33;20183;-72
2024/01/21 03:08:51;;;;;;;30.12;18.15;;;;;;;-0.51;56.61;101462.91;4303218;33;20159;-72
2024/01/21 03:11:21;;;;;;;24.55;18.00;;;;;;;-0.26;55.94;101467.25;4313305;33;20167;-72
2024/01/21 03:13:58;;;;;;;22.48;17.20;;;;;;;-0.20;55.65;101470.72;4317764;28;20163;-72
2024/01/21 03:16:30;;;;;;;25.23;18.75;;;;;;;-0.47;56.03;101471.59;4303483;33;20159;-72
2024/01/21 03:18:59;;;;;;;23.02;17.70;;;;;;;-0.39;55.76;101483.75;4303628;33;20147;-73
2024/01/21 03:21:28;;;;;;;24.98;18.75;;;;;;;-0.47;56.18;101480.28;4303070;33;20151;-73
2024/01/21 03:23:57;;;;;;;26.25;18.65;;;;;;;-0.32;55.68;101485.50;4302610;33;20175;-73
2024/01/21 03:26:27;;;;;;;23.30;17.40;;;;;;;-0.29;55.51;101487.22;4303881;33;20568;-72
2024/01/21 03:28:58;;;;;;;21.77;15.48;;;;;;;0.08;54.60;101490.69;4303476;33;20619;-72
2024/01/21 03:31:33;;;;;;;27.85;17.45;;;;;;;-0.09;55.01;101493.28;4303427;33;20457;-72
2024/01/21 03:34:03;;;;;;;24.45;16.70;;;;;;;-0.13;55.12;101490.69;4303547;33;20155;-73
2024/01/21 03:36:33;;;;;;;21.40;16.37;;;;;;;-0.13;55.27;101498.50;4303580;33;20155;-73
2024/01/21 03:39:03;;;;;;;27.95;17.30;;;;;;;-0.11;55.04;101489.84;4303621;33;20480;-73
2024/01/21 03:41:32;;;;;;;27.48;16.48;;;;;;;-0.27;55.38;101491.56;4302958;33;20170;-73
2024/01/21 03:44:04;;;;;;;23.90;16.35;;;;;;;0.01;54.81;101488.09;4307525;28;20131;-73
2024/01/21 03:46:39;;;;;;;22.33;17.65;;;;;;;-0.17;55.21;101482.00;4303351;33;20147;-72
2024/01/21 03:49:09;;;;;;;22.08;16.33;;;;;;;0.03;54.66;101487.22;4304027;33;20152;-72
2024/01/21 03:51:39;;;;;;;31.15;16.70;;;;;;;0.03;54.43;101483.75;4302812;33;20235;-73
2024/01/21 03:54:09;;;;;;;28.10;17.35;;;;;;;-0.20;55.10;101492.41;4312394;33;20167;-73
2024/01/21 03:56:41;;;;;;;29.65;17.23;;;;;;;-0.18;55.15;101495.91;4316755;33;20134;-73
2024/01/21 03:59:11;;;;;;;23.85;15.68;;;;;;;-0.15;54.99;101495.91;4317105;33;20147;-73
2024/01/21 04:01:46;;;;;;;24.77;16.70;;;;;;;-0.31;54.93;101491.56;4318729;33;20171;-73
2024/01/21 04:04:16;;;;;;;22.15;17.02;;;;;;;-0.32;55.23;101495.91;4318759;33;20147;-73
2024/01/21 04:06:45;;;;;;;24.30;17.55;;;;;;;-0.39;55.23;101490.69;4318768;33;20134;-73
2024/01/21 04:09:15;;;;;;;23.55;17.55;;;;;;;-0.25;54.98;101499.38;4318686;33;20163;-73
2024/01/21 04:11:44;;;;;;;23.87;16.87;;;;;;;-0.23;54.90;101491.56;4330208;33;20154;-73
2024/01/21 04:14:15;;;;;;;26.50;18.15;;;;;;;-0.14;54.79;101502.84;4318831;27;20151;-73
2024/01/21 04:16:44;;;;;;;20.08;15.80;;;;;;;-0.06;54.48;101495.91;4289480;33;20199;-73
2024/01/21 04:19:14;;;;;;;23.33;16.98;;;;;;;-0.33;54.76;101498.50;4290890;33;20147;-73
2024/01/21 04:21:43;;;;;;;21.55;15.77;;;;;;;-0.30;54.39;101503.72;4290008;33;20493;-73
2024/01/21 04:24:12;;;;;;;21.95;16.12;;;;;;;-0.49;55.07;101502.81;4289382;33;20144;-73
2024/01/21 04:26:41;;;;;;;23.38;17.25;;;;;;;-0.69;55.65;101499.31;4292331;33;20155;-73
2024/01/21 04:29:11;;;;;;;24.55;17.70;;;;;;;-0.25;54.70;101500.22;4304756;33;20167;-73
2024/01/21 04:31:45;;;;;;;23.23;16.77;;;;;;;-0.57;55.24;101491.53;4304639;33;20178;-73
2024/01/21 04:34:17;;;;;;;25.20;17.25;;;;;;;-0.28;54.58;101492.44;4303963;33;20481;-73
2024/01/21 04:36:46;;;;;;;;;;;;;;;-0.15;54.00;101485.50;4304157;33;20505;-73
2024/01/21 04:39:19;;;;;;;26.17;17.95;;;;;;;-0.21;54.12;101487.22;4303903;33;20034;-73
2024/01/21 04:41:48;;;;;;;;;;;;;;;-0.18;53.88;101493.31;4304353;33;20171;-73
2024/01/21 04:44:19;;;;;;;24.70;16.33;;;;;;;-0.28;54.23;101484.63;4302435;28;20023;-73
2024/01/21 04:46:50;;;;;;;22.08;17.02;;;;;;;-0.11;53.98;101473.34;4289463;33;20203;-73
2024/01/21 04:49:22;;;;;;;24.92;17.05;;;;;;;-0.28;54.30;101478.53;4289647;33;20175;-73
2024/01/21 04:51:52;;;;;;;20.77;16.75;;;;;;;-0.45;54.74;101481.13;4288988;33;20702;-73
2024/01/21 04:54:21;;;;;;;22.15;15.82;;;;;;;-0.24;54.23;101485.47;4288959;33;20430;-73
2024/01/21 04:56:50;;;;;;;21.62;17.12;;;;;;;-0.52;55.02;101489.78;4289495;33;20139;-73
2024/01/21 04:59:20;;;;;;;22.15;17.42;;;;;;;-0.67;55.11;101489.75;4289818;33;20148;-73
2024/01/21 05:01:50;;;;;;;26.17;17.20;;;;;;;-0.75;55.31;101493.22;4289593;33;20170;-73
2024/01/21 05:04:20;;;;;;;26.15;17.92;;;;;;;-0.68;55.56;101491.50;4289659;33;20148;-73
2024/01/21 05:06:49;;;;;;;22.15;15.93;;;;;;;-0.60;55.22;101487.16;4290171;33;20148;-72
2024/01/21 05:09:18;;;;;;;23.05;17.20;;;;;;;-0.37;54.94;101495.00;4290395;33;20144;-73
2024/01/21 05:11:47;;;;;;;21.45;16.40;;;;;;;-0.35;54.83;101490.69;4301327;33;20446;-73
2024/01/21 05:14:16;;;;;;;21.70;15.68;;;;;;;-0.32;54.52;101495.91;4303248;28;20175;-72
2024/01/21 05:16:53;;;;;;;26.40;16.23;;;;;;;-0.62;55.28;101498.47;4283303;33;20159;-72
2024/01/21 05:19:23;;;;;;;20.40;15.32;;;;;;;-0.59;55.08;101491.53;4290330;33;20136;-73
2024/01/21 05:21:52;;;;;;;23.58;15.77;;;;;;;-0.61;55.27;101500.19;4289434;33;20303;-72
2024/01/21 05:24:22;;;;;;;26.75;16.33;;;;;;;-0.79;55.41;101507.09;4289603;33;20143;-72
2024/01/21 05:26:51;;;;;;;22.00;15.93;;;;;;;-0.43;54.67;101510.66;4290400;33;20155;-73
2024/01/21 05:29:21;;;;;;;25.17;15.88;;;;;;;-0.46;54.76;101520.19;4290378;33;20171;-73
2024/01/21 05:31:50;;;;;;;23.98;16.62;;;;;;;-0.13;54.04;101525.44;4290032;33;20223;-72
2024/01/21 05:34:20;;;;;;;25.52;17.00;;;;;;;-0.29;54.33;101523.69;4289987;33;20139;-72
2024/01/21 05:36:50;;;;;;;24.52;17.00;;;;;;;-0.06;53.89;101534.13;4289971;33;20140;-72
2024/01/21 05:39:21;;;;;;;27.52;17.58;;;;;;;-0.32;53.88;101537.59;4289603;33;20140;-72
2024/01/21 05:42:03;;;;;;;23.20;16.40;;;;;;;-0.37;54.17;101541.03;4289578;33;20147;-72
2024/01/21 05:44:33;;;;;;;22.55;16.15;;;;;;;-0.21;53.73;101545.41;4293882;28;20147;-73
2024/01/21 05:47:02;;;;;;;21.77;15.82;;;;;;;-0.08;53.50;101541.06;4289481;33;20143;-72
2024/01/21 05:49:33;;;;;;;24.15;16.30;;;;;;;-0.29;54.06;101545.37;4289555;33;20420;-72
2024/01/21 05:52:03;;;;;;;24.37;16.35;;;;;;;-0.43;54.82;101554.91;4288569;33;20180;-72
2024/01/21 05:54:32;;;;;;;23.40;16.83;;;;;;;-0.51;55.01;101554.03;4288510;33;20148;-72
2024/01/21 05:57:01;;;;;;;24.90;17.02;;;;;;;-0.72;55.64;101561.75;4289486;33;20140;-72
2024/01/21 05:59:37;;;;;;;27.85;17.98;;;;;;;-1.05;56.64;101561.63;4289077;33;20155;-72
2024/01/21 06:02:10;;;;;;;24.33;18.48;;;;;;;-0.92;56.51;101570.34;4289649;33;20191;-72
2024/01/21 06:04:41;;;;;;;22.45;17.15;;;;;;;-0.94;56.56;101577.28;4289241;33;20430;-72
2024/01/21 06:07:10;;;;;;;23.98;17.67;;;;;;;-0.82;56.33;101571.28;4289022;33;20151;-72
2024/01/21 06:09:39;;;;;;;24.25;16.42;;;;;;;-0.74;56.03;101577.38;4289016;33;20159;-72
2024/01/21 06:12:09;;;;;;;23.58;16.58;;;;;;;-0.60;55.88;101577.41;4302872;33;20167;-72
2024/01/21 06:14:38;;;;;;;33.50;20.40;;;;;;;-0.34;55.15;101577.50;4299401;28;20840;-72
2024/01/21 06:17:07;;;;;;;48.08;31.05;;;;;;;-0.28;54.96;101586.22;4288917;33;20140;-72
2024/01/21 06:19:38;;;;;;;75.28;46.03;;;;;;;-0.32;54.88;101584.47;4288950;33;20266;-72
2024/01/21 06:22:09;;;;;;;39.77;27.87;;;;;;;-0.37;55.10;101585.31;4288373;33;20239;-72
2024/01/21 06:24:39;;;;;;;26.50;19.60;;;;;;;-0.70;55.40;101593.88;4288252;33;20167;-72
2024/01/21 06:27:08;;;;;;;23.90;16.48;;;;;;;-0.33;54.84;101600.06;4288887;33;20442;-72
2024/01/21 06:29:37;;;;;;;20.08;15.50;;;;;;;-0.60;55.34;101588.69;4288997;33;20151;-73
2024/01/21 06:32:10;;;;;;;22.65;15.65;;;;;;;-0.67;55.59;101593.88;4289967;33;20263;-72
2024/01/21 06:34:39;;;;;;;26.27;17.87;;;;;;;-0.21;54.50;101604.44;4289098;33;20509;-72
2024/01/21 06:37:10;;;;;;;26.35;17.90;;;;;;;-0.62;55.46;101600.00;4289161;33;20444;-72
2024/01/21 06:39:39;;;;;;;25.73;18.60;;;;;;;-0.62;55.84;101595.66;4289179;33;20147;-72
2024/01/21 06:42:10;;;;;;;28.52;19.35;;;;;;;-0.61;55.78;101599.13;4288577;33;20176;-73
2024/01/21 06:44:43;;;;;;;23.60;17.42;;;;;;;-0.55;55.86;101599.16;4292700;28;20147;-73
2024/01/21 06:47:13;;;;;;;22.70;15.38;;;;;;;-0.68;55.99;101598.22;4289245;33;20183;-72
2024/01/21 06:49:43;;;;;;;22.60;17.08;;;;;;;-0.79;56.17;101606.00;4283242;33;20160;-72
2024/01/21 06:52:13;;;;;;;27.02;17.33;;;;;;;-0.79;56.47;101602.53;4288402;33;20195;-72
2024/01/21 06:54:46;;;;;;;23.17;18.35;;;;;;;-0.64;56.35;101601.69;4288111;33;20475;-72
2024/01/21 06:57:15;;;;;;;25.88;18.92;;;;;;;-0.46;55.81;101593.97;4289165;33;20147;-72
2024/01/21 06:59:45;;;;;;;25.05;19.27;;;;;;;-0.83;56.78;101595.53;4288685;33;20171;-72
2024/01/21 07:02:26;;;;;;;24.35;18.30;;;;;;;-0.69;56.56;101595.63;4289102;33;20140;-72
2024/01/21 07:04:55;;;;;;;30.37;22.87;;;;;;;-0.76;56.37;101597.31;4294919;33;20155;-72
2024/01/21 07:07:26;;;;;;;28.77;20.92;;;;;;;-0.25;55.47;101595.75;4303233;33;20172;-73
2024/01/21 07:09:55;;;;;;;25.65;19.60;;;;;;;0.18;54.29;101607.09;4304270;33;20147;-72
2024/01/21 07:12:24;;;;;;;28.58;19.55;;;;;;;0.53;53.11;101594.94;4318294;33;20144;-73
2024/01/21 07:14:54;;;;;;;25.33;18.08;;;;;;;0.70;52.23;101591.44;4309867;28;20152;-73
2024/01/21 07:17:23;;;;;;;25.65;18.60;;;;;;;1.08;51.59;101587.00;4289361;33;20164;-73
2024/01/21 07:19:53;;;;;;;30.50;18.15;;;;;;;1.17;50.96;101595.66;4291345;33;20159;-73
2024/01/21 07:22:23;;;;;;;22.50;15.82;;;;;;;1.97;49.42;101593.50;4290050;33;20223;-73
2024/01/21 07:24:55;;;;;;;23.65;16.67;;;;;;;2.36;47.83;101598.44;4289053;33;20152;-73
2024/01/21 07:27:24;;;;;;;21.92;16.80;;;;;;;2.17;48.32;101601.19;4289615;33;20449;-73
2024/01/21 07:29:53;;;;;;;22.70;17.37;;;;;;;1.90;48.46;101604.00;4290038;33;20551;-73
2024/01/21 07:32:29;;;;;;;22.08;16.17;;;;;;;2.25;47.98;101601.12;4290717;33;20148;-72
2024/01/21 07:35:08;;;;;;;25.52;16.60;;;;;;;1.35;50.28;101604.31;4290143;33;20520;-73
2024/01/21 07:37:38;;;;;;;25.48;16.75;;;;;;;1.34;50.12;101602.56;4290779;33;20274;-72
2024/01/21 07:40:10;;;;;;;23.12;15.77;;;;;;;1.91;49.36;101604.00;4290222;33;20152;-72
2024/01/21 07:42:39;;;;;;;24.05;16.70;;;;;;;2.84;47.29;101601.50;4288906;33;20160;-72
2024/01/21 07:45:09;;;;;;;21.95;15.30;;;;;;;3.26;46.65;101594.06;4294781;28;20407;-73
2024/01/21 07:47:42;;;;;;;23.30;16.33;;;;;;;3.55;45.75;101604.16;4289958;33;20186;-73
2024/01/21 07:50:12;;;;;;;21.33;15.48;;;;;;;4.21;44.50;101601.47;4291455;33;20180;-73
2024/01/21 07:52:44;;;;;;;21.98;15.45;;;;;;;4.66;43.54;101601.56;4289472;33;20188;-73
2024/01/21 07:55:16;;;;;;;20.95;12.75;;;;;;;4.62;58.61;101605.16;4289490;33;20164;-73
2024/01/21 07:57:45;;;;;;;21.95;16.25;;;;;;;5.84;55.26;101607.09;4289960;33;20151;-73
2024/01/21 08:00:17;;;;;;;20.33;15.57;;;;;;;6.36;43.67;101612.03;4289794;33;20159;-73
2024/01/21 08:02:52;;;;;;;19.02;13.52;;;;;;;6.76;40.30;101599.63;4289664;33;20172;-73
2024/01/21 08:05:22;;;;;;;19.30;15.65;;;;;;;6.83;38.89;101601.19;4289857;33;20151;-73
2024/01/21 08:07:51;;;;;;;18.75;14.82;;;;;;;7.36;37.73;101596.19;4289552;33;20183;-73
2024/01/21 08:10:25;;;;;;;19.42;14.10;;;;;;;7.91;37.13;101588.41;4293747;33;20444;-73
2024/01/21 08:12:54;;;;;;;20.10;15.35;;;;;;;8.37;35.92;101588.69;4304620;33;20171;-74
2024/01/21 08:15:24;;;;;;;17.37;12.85;;;;;;;9.07;34.79;101606.56;4295827;28;20200;-74
2024/01/21 08:17:59;;;;;;;20.70;15.88;;;;;;;9.68;33.50;101602.53;4289008;33;20519;-74
2024/01/21 08:20:28;;;;;;;21.12;14.00;;;;;;;10.17;32.57;101598.81;4288506;33;20167;-74
2024/01/21 08:22:57;;;;;;;19.52;14.70;;;;;;;10.64;31.97;101601.31;4288429;33;20151;-74
2024/01/21 08:25:28;;;;;;;21.73;15.40;;;;;;;11.22;31.17;101600.56;4288513;33;20175;-74
2024/01/21 08:27:57;;;;;;;20.60;15.02;;;;;;;11.58;30.52;101598.88;4276088;33;20168;-74
2024/01/21 08:30:27;;;;;;;19.80;14.10;;;;;;;11.61;29.77;101597.91;4289435;33;20159;-74
2024/01/21 08:33:00;;;;;;;20.70;15.05;;;;;;;12.07;29.98;101593.94;4290275;33;20191;-74
2024/01/21 08:35:29;;;;;;;20.75;15.40;;;;;;;12.54;28.90;101604.00;4290901;33;20147;-74
2024/01/21 08:38:00;;;;;;;20.75;14.05;;;;;;;12.87;28.77;101605.91;4289940;33;20446;-74
2024/01/21 08:40:34;;;;;;;17.48;13.07;;;;;;;13.05;27.84;101612.91;4289697;33;20580;-74
2024/01/21 08:43:06;;;;;;;18.45;13.57;;;;;;;13.31;28.01;101610.72;4290079;33;20183;-74
2024/01/21 08:45:38;;;;;;;17.45;14.45;;;;;;;13.66;26.87;101607.94;4299173;28;20636;-74
2024/01/21 08:48:08;;;;;;;19.42;13.90;;;;;;;13.46;26.42;101606.34;4288665;33;20156;-74
2024/01/21 08:50:39;;;;;;;18.12;12.88;;;;;;;13.57;26.32;101617.28;4289017;33;20172;-74
2024/01/21 08:53:09;;;;;;;20.27;13.35;;;;;;;14.07;25.92;101626.97;4288753;33;20520;-74
2024/01/21 08:55:41;;;;;;;17.95;13.23;;;;;;;14.01;25.71;101621.97;4287884;33;20163;-74
2024/01/21 08:58:10;;;;;;;19.00;14.38;;;;;;;14.31;25.95;101630.03;4288996;33;20151;-74
2024/01/21 09:00:41;;;;;;;17.52;12.70;;;;;;;14.76;25.07;101623.84;4288865;33;20509;-74
2024/01/21 09:03:12;;;;;;;17.50;13.18;;;;;;;15.05;24.18;101617.75;4288955;33;20159;-74
2024/01/21 09:05:41;;;;;;;16.70;12.50;;;;;;;14.63;25.16;101635.34;4288888;33;20180;-75
2024/01/21 09:08:10;;;;;;;23.12;14.35;;;;;;;14.60;24.84;101638.19;4289338;33;20175;-75
2024/01/21 09:10:43;;;;;;;21.23;14.00;;;;;;;14.23;24.72;101642.94;4285872;33;20501;-75
2024/01/21 09:13:13;;;;;;;21.77;13.85;;;;;;;14.01;25.02;101651.28;4303443;33;20164;-75
2024/01/21 09:15:45;;;;;;;22.33;17.75;;;;;;;14.14;25.07;101646.16;4293819;28;20414;-75
2024/01/21 09:18:15;;;;;;;20.33;17.95;;;;;;;14.00;25.10;101650.44;4275700;33;20174;-75
2024/01/21 09:20:44;;;;;;;19.80;14.35;;;;;;;13.39;25.96;101648.44;4289130;33;20501;-75
2024/01/21 09:23:21;;;;;;;19.87;15.05;;;;;;;13.56;26.01;101649.34;4288661;33;20394;-75
2024/01/21 09:25:52;;;;;;;33.30;21.70;;;;;;;13.48;26.04;101649.75;4288222;33;20167;-75
2024/01/21 09:28:23;;;;;;;51.30;41.72;;;;;;;12.92;26.81;101651.75;4288873;33;20148;-74
2024/01/21 09:30:52;;;;;;;66.85;39.58;;;;;;;12.88;27.08;101655.50;4288663;33;20143;-74
2024/01/21 09:33:22;;;;;;;53.28;34.45;;;;;;;12.45;27.31;101643.50;4288733;33;20514;-74
2024/01/21 09:35:52;;;;;;;48.53;32.92;;;;;;;11.99;28.05;101653.69;4288657;33;20184;-74
2024/01/21 09:38:21;;;;;;;23.38;14.90;;;;;;;11.91;28.52;101656.69;4289268;33;20159;-74
2024/01/21 09:41:01;;;;;;;21.30;16.33;;;;;;;11.98;28.42;101650.16;4288571;33;20172;-74
2024/01/21 09:43:31;;;;;;;25.48;18.48;;;;;;;11.82;28.79;101660.63;4293856;28;20167;-74
2024/01/21 09:46:04;;;;;;;22.10;16.02;;;;;;;12.22;28.20;101661.41;4287842;33;20135;-74
2024/01/21 09:48:37;;;;;;;21.95;16.65;;;;;;;12.49;28.07;101656.56;4288366;33;20160;-74
2024/01/21 09:51:08;;;;;;;19.25;15.70;;;;;;;12.13;28.26;101656.56;4288574;33;20165;-74
2024/01/21 09:53:37;;;;;;;29.48;21.35;;;;;;;12.17;28.31;101652.81;4287595;33;20250;-74
2024/01/21 09:56:14;;;;;;;282.70;149.82;;;;;;;12.65;27.93;101661.13;4287960;33;20175;-74
2024/01/21 09:58:46;;;;;;;26.12;18.27;;;;;;;10.01;31.63;101669.19;4288122;33;20172;-74
2024/01/21 10:01:17;;;;;;;21.23;16.42;;;;;;;11.04;30.35;101664.09;4288565;33;20164;-74
2024/01/21 10:03:49;;;;;;;71.10;44.17;;;;;;;11.57;29.46;101654.72;4275733;33;20144;-74
2024/01/21 10:06:22;;;;;;;23.33;16.17;;;;;;;11.64;28.99;101656.19;4288628;33;20131;-74
2024/01/21 10:08:52;;;;;;;43.75;28.42;;;;;;;10.81;30.41;101657.16;4288513;33;20522;-74
2024/01/21 10:11:22;;;;;;;35.53;28.98;;;;;;;11.16;29.58;101653.91;4298087;33;20158;-74
2024/01/21 10:13:51;;;;;;;39.25;33.63;;;;;;;10.78;30.00;101661.72;4305213;28;20175;-74
2024/01/21 10:16:20;;;;;;;39.38;28.95;;;;;;;10.26;31.02;101669.16;4288663;33;20418;-74
2024/01/21 10:18:50;;;;;;;23.20;17.65;;;;;;;10.05;31.31;101668.16;4288597;33;20474;-74
2024/01/21 10:21:20;;;;;;;37.83;33.95;;;;;;;10.58;30.18;101667.84;4288820;33;20448;-74
2024/01/21 10:23:49;;;;;;;22.90;18.45;;;;;;;10.22;30.42;101664.88;4287747;33;20183;-74
2024/01/21 10:26:18;;;;;;;21.83;14.57;;;;;;;10.62;30.39;101661.50;4288341;33;20151;-74
2024/01/21 10:28:52;;;;;;;20.17;14.63;;;;;;;10.58;30.59;101665.22;4288726;33;20195;-75
2024/01/21 10:31:21;;;;;;;21.65;15.75;;;;;;;10.39;30.51;101664.22;4288531;33;20152;-74
2024/01/21 10:33:50;;;;;;;25.17;16.55;;;;;;;10.91;30.11;101652.31;4288587;33;20211;-74
2024/01/21 10:36:20;;;;;;;20.75;15.57;;;;;;;11.00;29.87;101656.34;4288814;33;20171;-74
2024/01/21 10:38:51;;;;;;;24.37;14.10;;;;;;;11.19;29.45;101659.06;4287333;33;20568;-74
2024/01/21 10:41:30;;;;;;;20.40;14.48;;;;;;;10.25;29.94;101662.97;4289003;33;20171;-74
2024/01/21 10:44:03;;;;;;;20.50;15.27;;;;;;;10.44;30.76;101657.81;4292796;28;20176;-74
2024/01/21 10:46:34;;;;;;;21.25;14.43;;;;;;;10.95;30.10;101655.69;4288619;33;20513;-74
2024/01/21 10:49:04;;;;;;;23.92;15.57;;;;;;;11.14;29.76;101653.97;4288253;33;20167;-74
2024/01/21 10:51:33;;;;;;;18.02;14.77;;;;;;;10.79;29.71;101658.13;4288388;33;20159;-74
2024/01/21 10:54:04;;;;;;;23.92;16.27;;;;;;;11.12;29.35;101657.63;4287545;33;20163;-74
2024/01/21 10:56:34;;;;;;;20.65;14.35;;;;;;;11.15;29.81;101657.50;4287496;33;20144;-74
2024/01/21 10:59:06;;;;;;;46.40;33.30;;;;;;;11.20;29.83;101659.00;4288721;33;20143;-74
2024/01/21 11:01:35;;;;;;;22.25;17.40;;;;;;;10.45;30.34;101662.19;4288649;33;20167;-74
2024/01/21 11:04:07;;;;;;;22.37;17.92;;;;;;;10.44;30.78;101659.59;4287914;33;20151;-74
2024/01/21 11:06:37;;;;;;;23.57;19.30;;;;;;;10.91;30.06;101654.09;4288101;33;20167;-74
2024/01/21 11:09:08;;;;;;;22.85;18.62;;;;;;;10.91;30.22;101660.25;4287142;33;20160;-74
2024/01/21 11:11:42;;;;;;;26.45;19.33;;;;;;;11.22;29.59;101657.16;4297776;33;20421;-74
2024/01/21 11:14:34;;;;;;;22.48;18.08;;;;;;;11.28;29.33;101663.97;4303012;28;20175;-74
2024/01/21 11:17:05;;;;;;;24.15;18.85;;;;;;;11.80;28.78;101664.28;4288039;33;20168;-74
2024/01/21 11:19:44;;;;;;;21.52;18.67;;;;;;;10.67;30.29;101671.91;4286736;33;20151;-74
2024/01/21 11:22:14;;;;;;;27.83;20.08;;;;;;;9.81;31.55;101668.19;4288245;33;20168;-74
2024/01/21 11:24:46;;;;;;;27.15;18.25;;;;;;;9.76;32.00;101662.22;4286785;33;20211;-74
2024/01/21 11:27:18;;;;;;;30.90;23.75;;;;;;;10.38;31.11;101658.06;4288181;33;20156;-74